sensor_id;sensor_type;location;lat;lon;timestamp;pressure;altitude;pressure_sealevel;temperature;humidity
32324;BME280;25666;44.350;9.222;2023-05-23T00:00:23;101365.53;;;17.44;100.00
32324;BME280;25666;44.350;9.222;2023-05-23T00:02:49;101365.38;;;17.33;100.00
32324;BME280;25666;44.350;9.222;2023-05-23T00:05:14;101360.41;;;17.23;100.00
32324;BME280;25666;44.350;9.222;2023-05-23T00:07:43;101354.66;;;17.12;100.00
32324;BME280;25666;44.350;9.222;2023-05-23T00:10:08;101361.19;;;17.20;100.00
32324;BME280;25666;44.350;9.222;2023-05-23T00:12:34;101363.03;;;17.39;100.00
32324;BME280;25666;44.350;9.222;2023-05-23T00:15:02;101355.75;;;17.34;100.00
32324;BME280;25666;44.350;9.222;2023-05-23T00:17:27;101351.53;;;17.47;100.00
32324;BME280;25666;44.350;9.222;2023-05-23T00:19:52;101351.13;;;17.49;100.00
32324;BME280;25666;44.350;9.222;2023-05-23T00:22:20;101353.44;;;17.10;100.00
32324;BME280;25666;44.350;9.222;2023-05-23T00:24:46;101353.66;;;17.28;100.00
32324;BME280;25666;44.350;9.222;2023-05-23T00:27:11;101355.31;;;17.32;100.00
32324;BME280;25666;44.350;9.222;2023-05-23T00:29:37;101350.78;;;17.24;100.00
32324;BME280;25666;44.350;9.222;2023-05-23T00:32:02;101356.41;;;16.94;100.00
32324;BME280;25666;44.350;9.222;2023-05-23T00:34:28;101351.41;;;17.10;100.00
32324;BME280;25666;44.350;9.222;2023-05-23T00:36:53;101343.34;;;17.09;100.00
32324;BME280;25666;44.350;9.222;2023-05-23T00:39:19;101341.91;;;16.92;100.00
32324;BME280;25666;44.350;9.222;2023-05-23T00:41:47;101344.38;;;16.71;100.00
32324;BME280;25666;44.350;9.222;2023-05-23T00:44:12;101341.53;;;16.94;100.00
32324;BME280;25666;44.350;9.222;2023-05-23T00:46:38;101338.78;;;16.97;100.00
32324;BME280;25666;44.350;9.222;2023-05-23T00:49:05;101348.06;;;17.01;100.00
32324;BME280;25666;44.350;9.222;2023-05-23T00:51:30;101332.78;;;16.73;100.00
32324;BME280;25666;44.350;9.222;2023-05-23T00:53:56;101335.19;;;16.74;100.00
32324;BME280;25666;44.350;9.222;2023-05-23T00:56:25;101338.53;;;16.57;100.00
32324;BME280;25666;44.350;9.222;2023-05-23T00:58:51;101339.13;;;16.70;100.00
32324;BME280;25666;44.350;9.222;2023-05-23T01:01:17;101341.47;;;16.90;100.00
32324;BME280;25666;44.350;9.222;2023-05-23T01:03:43;101345.28;;;17.05;100.00
32324;BME280;25666;44.350;9.222;2023-05-23T01:06:10;101343.41;;;16.86;100.00
32324;BME280;25666;44.350;9.222;2023-05-23T01:08:36;101338.72;;;16.94;100.00
32324;BME280;25666;44.350;9.222;2023-05-23T01:11:07;101336.03;;;17.04;100.00
32324;BME280;25666;44.350;9.222;2023-05-23T01:13:55;101333.19;;;17.01;100.00
32324;BME280;25666;44.350;9.222;2023-05-23T01:21:24;101335.97;;;16.97;100.00
32324;BME280;25666;44.350;9.222;2023-05-23T01:29:44;101330.53;;;16.59;100.00
32324;BME280;25666;44.350;9.222;2023-05-23T01:32:11;101324.38;;;16.76;100.00
32324;BME280;25666;44.350;9.222;2023-05-23T01:34:39;101329.28;;;16.34;100.00
32324;BME280;25666;44.350;9.222;2023-05-23T01:37:09;101330.91;;;16.35;100.00
32324;BME280;25666;44.350;9.222;2023-05-23T01:39:36;101325.19;;;16.54;100.00
32324;BME280;25666;44.350;9.222;2023-05-23T01:42:02;101326.22;;;16.42;100.00
32324;BME280;25666;44.350;9.222;2023-05-23T01:44:28;101326.16;;;16.16;100.00
32324;BME280;25666;44.350;9.222;2023-05-23T01:46:55;101330.50;;;16.14;100.00
32324;BME280;25666;44.350;9.222;2023-05-23T01:49:21;101338.00;;;16.51;100.00
32324;BME280;25666;44.350;9.222;2023-05-23T01:51:48;101328.97;;;16.62;100.00
32324;BME280;25666;44.350;9.222;2023-05-23T01:54:15;101339.22;;;16.28;100.00
32324;BME280;25666;44.350;9.222;2023-05-23T01:56:41;101341.63;;;16.29;100.00
32324;BME280;25666;44.350;9.222;2023-05-23T01:59:07;101342.00;;;16.05;100.00
32324;BME280;25666;44.350;9.222;2023-05-23T02:01:33;101349.69;;;16.08;100.00
32324;BME280;25666;44.350;9.222;2023-05-23T02:03:59;101346.19;;;16.37;100.00
32324;BME280;25666;44.350;9.222;2023-05-23T02:06:24;101344.38;;;16.48;100.00
32324;BME280;25666;44.350;9.222;2023-05-23T02:08:50;101342.91;;;16.54;100.00
32324;BME280;25666;44.350;9.222;2023-05-23T02:11:15;101340.28;;;16.65;100.00
32324;BME280;25666;44.350;9.222;2023-05-23T02:13:41;101351.69;;;16.53;100.00
32324;BME280;25666;44.350;9.222;2023-05-23T02:16:06;101346.16;;;16.56;100.00
32324;BME280;25666;44.350;9.222;2023-05-23T02:18:33;101340.81;;;16.51;100.00
32324;BME280;25666;44.350;9.222;2023-05-23T02:21:04;101338.22;;;16.62;100.00
32324;BME280;25666;44.350;9.222;2023-05-23T02:23:30;101340.72;;;16.44;100.00
32324;BME280;25666;44.350;9.222;2023-05-23T02:25:56;101345.50;;;16.21;100.00
32324;BME280;25666;44.350;9.222;2023-05-23T02:28:21;101343.94;;;16.24;100.00
32324;BME280;25666;44.350;9.222;2023-05-23T02:30:48;101343.88;;;16.20;100.00
32324;BME280;25666;44.350;9.222;2023-05-23T02:33:13;101340.22;;;16.16;100.00
32324;BME280;25666;44.350;9.222;2023-05-23T02:35:40;101342.31;;;16.00;100.00
32324;BME280;25666;44.350;9.222;2023-05-23T02:38:06;101343.00;;;15.93;100.00
32324;BME280;25666;44.350;9.222;2023-05-23T02:40:31;101337.31;;;15.90;100.00
32324;BME280;25666;44.350;9.222;2023-05-23T02:42:57;101342.84;;;15.86;100.00
32324;BME280;25666;44.350;9.222;2023-05-23T02:45:23;101340.94;;;15.90;100.00
32324;BME280;25666;44.350;9.222;2023-05-23T02:47:48;101341.78;;;15.52;100.00
32324;BME280;25666;44.350;9.222;2023-05-23T02:50:14;101339.91;;;15.60;100.00
32324;BME280;25666;44.350;9.222;2023-05-23T02:52:40;101337.72;;;15.69;100.00
32324;BME280;25666;44.350;9.222;2023-05-23T02:55:07;101338.41;;;15.85;100.00
32324;BME280;25666;44.350;9.222;2023-05-23T02:57:38;101338.66;;;15.77;100.00
32324;BME280;25666;44.350;9.222;2023-05-23T03:00:04;101339.31;;;15.51;100.00
32324;BME280;25666;44.350;9.222;2023-05-23T03:02:31;101346.13;;;15.50;100.00
32324;BME280;25666;44.350;9.222;2023-05-23T03:04:56;101347.56;;;15.44;100.00
32324;BME280;25666;44.350;9.222;2023-05-23T03:07:22;101335.06;;;15.41;100.00
32324;BME280;25666;44.350;9.222;2023-05-23T03:09:47;101336.09;;;15.49;100.00
32324;BME280;25666;44.350;9.222;2023-05-23T03:12:13;101349.81;;;15.54;100.00
32324;BME280;25666;44.350;9.222;2023-05-23T03:14:38;101338.38;;;15.82;100.00
32324;BME280;25666;44.350;9.222;2023-05-23T03:17:04;101341.53;;;15.80;100.00
32324;BME280;25666;44.350;9.222;2023-05-23T03:19:29;101334.63;;;15.97;100.00
32324;BME280;25666;44.350;9.222;2023-05-23T03:21:55;101348.13;;;16.11;100.00
32324;BME280;25666;44.350;9.222;2023-05-23T03:24:21;101348.00;;;16.03;100.00
32324;BME280;25666;44.350;9.222;2023-05-23T03:26:46;101342.38;;;16.03;100.00
32324;BME280;25666;44.350;9.222;2023-05-23T03:29:12;101342.38;;;16.03;100.00
32324;BME280;25666;44.350;9.222;2023-05-23T03:31:37;101351.97;;;16.02;100.00
32324;BME280;25666;44.350;9.222;2023-05-23T03:34:03;101352.66;;;15.96;100.00
32324;BME280;25666;44.350;9.222;2023-05-23T03:36:31;101359.91;;;15.97;100.00
32324;BME280;25666;44.350;9.222;2023-05-23T03:39:00;101351.97;;;16.02;100.00
32324;BME280;25666;44.350;9.222;2023-05-23T03:41:25;101357.81;;;16.13;100.00
32324;BME280;25666;44.350;9.222;2023-05-23T03:43:51;101358.94;;;15.89;100.00
32324;BME280;25666;44.350;9.222;2023-05-23T03:46:17;101360.56;;;16.10;100.00
32324;BME280;25666;44.350;9.222;2023-05-23T03:48:43;101359.00;;;16.12;100.00
32324;BME280;25666;44.350;9.222;2023-05-23T03:51:08;101364.84;;;16.03;100.00
32324;BME280;25666;44.350;9.222;2023-05-23T03:53:34;101360.91;;;16.08;100.00
32324;BME280;25666;44.350;9.222;2023-05-23T03:55:59;101361.22;;;16.03;100.00
32324;BME280;25666;44.350;9.222;2023-05-23T03:58:25;101361.97;;;16.00;100.00
32324;BME280;25666;44.350;9.222;2023-05-23T04:00:55;101355.69;;;16.06;100.00
32324;BME280;25666;44.350;9.222;2023-05-23T04:03:20;101358.84;;;16.05;100.00
32324;BME280;25666;44.350;9.222;2023-05-23T04:05:46;101360.34;;;15.99;100.00
32324;BME280;25666;44.350;9.222;2023-05-23T04:08:12;101352.47;;;16.08;100.00
32324;BME280;25666;44.350;9.222;2023-05-23T04:10:38;101360.81;;;15.63;100.00
32324;BME280;25666;44.350;9.222;2023-05-23T04:13:03;101355.81;;;15.72;100.00
32324;BME280;25666;44.350;9.222;2023-05-23T04:15:29;101357.13;;;15.78;100.00
32324;BME280;25666;44.350;9.222;2023-05-23T04:18:02;101356.47;;;15.65;100.00
32324;BME280;25666;44.350;9.222;2023-05-23T04:20:27;101350.34;;;16.01;100.00
32324;BME280;25666;44.350;9.222;2023-05-23T04:22:53;101353.34;;;15.89;100.00
32324;BME280;25666;44.350;9.222;2023-05-23T04:25:18;101355.56;;;15.80;100.00
32324;BME280;25666;44.350;9.222;2023-05-23T04:27:53;101350.44;;;15.86;100.00
32324;BME280;25666;44.350;9.222;2023-05-23T04:30:20;101342.91;;;15.90;100.00
32324;BME280;25666;44.350;9.222;2023-05-23T04:32:46;101347.78;;;15.93;100.00
32324;BME280;25666;44.350;9.222;2023-05-23T04:35:12;101346.72;;;15.78;100.00
32324;BME280;25666;44.350;9.222;2023-05-23T04:37:39;101352.47;;;16.08;100.00
32324;BME280;25666;44.350;9.222;2023-05-23T04:40:06;101347.16;;;16.22;100.00
32324;BME280;25666;44.350;9.222;2023-05-23T04:42:43;101347.06;;;16.41;100.00
32324;BME280;25666;44.350;9.222;2023-05-23T04:45:28;101339.41;;;16.61;100.00
32324;BME280;25666;44.350;9.222;2023-05-23T04:47:58;101337.72;;;16.56;100.00
32324;BME280;25666;44.350;9.222;2023-05-23T04:50:33;101340.00;;;16.74;100.00
32324;BME280;25666;44.350;9.222;2023-05-23T04:53:00;101342.22;;;16.87;100.00
32324;BME280;25666;44.350;9.222;2023-05-23T04:55:26;101338.75;;;16.71;100.00
32324;BME280;25666;44.350;9.222;2023-05-23T04:57:51;101334.75;;;16.98;100.00
32324;BME280;25666;44.350;9.222;2023-05-23T05:00:17;101343.03;;;16.88;100.00
32324;BME280;25666;44.350;9.222;2023-05-23T05:02:43;101340.88;;;16.78;100.00
32324;BME280;25666;44.350;9.222;2023-05-23T05:05:09;101341.00;;;17.14;100.00
32324;BME280;25666;44.350;9.222;2023-05-23T05:07:35;101336.44;;;17.33;100.00
32324;BME280;25666;44.350;9.222;2023-05-23T05:10:01;101336.84;;;17.31;100.00
32324;BME280;25666;44.350;9.222;2023-05-23T05:12:28;101337.44;;;17.18;100.00
32324;BME280;25666;44.350;9.222;2023-05-23T05:14:54;101339.88;;;17.19;100.00
32324;BME280;25666;44.350;9.222;2023-05-23T05:17:19;101330.91;;;17.40;100.00
32324;BME280;25666;44.350;9.222;2023-05-23T05:20:05;101333.72;;;17.70;100.00
32324;BME280;25666;44.350;9.222;2023-05-23T05:22:34;101335.97;;;17.90;100.00
32324;BME280;25666;44.350;9.222;2023-05-23T05:25:02;101332.75;;;17.88;100.00
32324;BME280;25666;44.350;9.222;2023-05-23T05:27:28;101337.13;;;18.23;100.00
32324;BME280;25666;44.350;9.222;2023-05-23T05:29:54;101342.22;;;18.50;100.00
32324;BME280;25666;44.350;9.222;2023-05-23T05:32:23;101343.25;;;18.76;100.00
32324;BME280;25666;44.350;9.222;2023-05-23T05:34:49;101336.56;;;18.98;100.00
32324;BME280;25666;44.350;9.222;2023-05-23T05:37:16;101332.72;;;19.34;100.00
32324;BME280;25666;44.350;9.222;2023-05-23T05:39:42;101334.94;;;19.72;100.00
32324;BME280;25666;44.350;9.222;2023-05-23T05:42:08;101322.16;;;20.63;100.00
32324;BME280;25666;44.350;9.222;2023-05-23T05:44:35;101315.06;;;22.32;100.00
32324;BME280;25666;44.350;9.222;2023-05-23T05:47:00;101313.00;;;24.16;100.00
32324;BME280;25666;44.350;9.222;2023-05-23T05:49:27;101315.53;;;26.05;100.00
32324;BME280;25666;44.350;9.222;2023-05-23T05:51:54;101308.06;;;26.76;100.00
32324;BME280;25666;44.350;9.222;2023-05-23T05:54:20;101317.19;;;27.74;100.00
32324;BME280;25666;44.350;9.222;2023-05-23T05:56:46;101326.16;;;28.77;100.00
32324;BME280;25666;44.350;9.222;2023-05-23T05:59:12;101316.25;;;29.37;100.00
32324;BME280;25666;44.350;9.222;2023-05-23T06:01:38;101317.28;;;30.75;97.34
32324;BME280;25666;44.350;9.222;2023-05-23T06:04:04;101318.69;;;32.07;83.41
32324;BME280;25666;44.350;9.222;2023-05-23T06:06:30;101317.78;;;32.91;71.55
32324;BME280;25666;44.350;9.222;2023-05-23T06:08:56;101318.94;;;33.46;67.81
32324;BME280;25666;44.350;9.222;2023-05-23T06:11:22;101316.41;;;33.92;61.28
32324;BME280;25666;44.350;9.222;2023-05-23T06:13:47;101320.38;;;34.24;58.97
32324;BME280;25666;44.350;9.222;2023-05-23T06:16:13;101318.13;;;35.23;52.84
32324;BME280;25666;44.350;9.222;2023-05-23T06:18:40;101313.47;;;35.52;48.12
32324;BME280;25666;44.350;9.222;2023-05-23T06:21:05;101313.72;;;35.74;47.49
32324;BME280;25666;44.350;9.222;2023-05-23T06:23:32;101312.31;;;36.21;44.85
32324;BME280;25666;44.350;9.222;2023-05-23T06:25:58;101311.69;;;34.93;48.58
32324;BME280;25666;44.350;9.222;2023-05-23T06:28:24;101318.78;;;35.33;47.46
32324;BME280;25666;44.350;9.222;2023-05-23T06:30:50;101309.66;;;36.23;46.32
32324;BME280;25666;44.350;9.222;2023-05-23T06:33:15;101314.41;;;36.57;43.98
32324;BME280;25666;44.350;9.222;2023-05-23T06:35:41;101313.97;;;36.70;42.56
32324;BME280;25666;44.350;9.222;2023-05-23T06:38:07;101311.28;;;37.14;39.90
32324;BME280;25666;44.350;9.222;2023-05-23T06:40:32;101308.31;;;37.90;38.67
32324;BME280;25666;44.350;9.222;2023-05-23T06:42:58;101297.13;;;38.66;36.82
32324;BME280;25666;44.350;9.222;2023-05-23T06:45:39;101297.50;;;39.15;35.43
32324;BME280;25666;44.350;9.222;2023-05-23T06:48:05;101298.28;;;39.21;33.73
32324;BME280;25666;44.350;9.222;2023-05-23T06:50:32;101299.91;;;39.63;31.94
32324;BME280;25666;44.350;9.222;2023-05-23T06:52:57;101296.16;;;39.68;32.13
32324;BME280;25666;44.350;9.222;2023-05-23T06:55:23;101299.72;;;40.20;31.50
32324;BME280;25666;44.350;9.222;2023-05-23T06:57:49;101303.31;;;41.04;31.42
32324;BME280;25666;44.350;9.222;2023-05-23T07:00:18;101298.13;;;40.73;32.10
32324;BME280;25666;44.350;9.222;2023-05-23T07:03:01;101297.19;;;41.27;31.03
32324;BME280;25666;44.350;9.222;2023-05-23T07:05:28;101293.06;;;41.16;31.14
32324;BME280;25666;44.350;9.222;2023-05-23T07:07:55;101294.13;;;41.19;30.35
32324;BME280;25666;44.350;9.222;2023-05-23T07:10:21;101297.50;;;41.42;30.45
32324;BME280;25666;44.350;9.222;2023-05-23T07:12:47;101292.28;;;41.35;30.46
32324;BME280;25666;44.350;9.222;2023-05-23T07:15:14;101295.94;;;41.41;30.26
32324;BME280;25666;44.350;9.222;2023-05-23T07:17:51;101299.91;;;36.57;39.25
32324;BME280;25666;44.350;9.222;2023-05-23T07:20:16;101297.16;;;36.42;43.24
32324;BME280;25666;44.350;9.222;2023-05-23T07:22:43;101305.88;;;36.42;43.40
32324;BME280;25666;44.350;9.222;2023-05-23T07:25:09;101311.63;;;36.74;43.27
32324;BME280;25666;44.350;9.222;2023-05-23T07:27:35;101306.38;;;36.83;43.17
32324;BME280;25666;44.350;9.222;2023-05-23T07:30:01;101298.56;;;37.93;40.30
32324;BME280;25666;44.350;9.222;2023-05-23T07:32:28;101306.25;;;37.09;39.73
32324;BME280;25666;44.350;9.222;2023-05-23T07:34:53;101302.06;;;35.02;45.77
32324;BME280;25666;44.350;9.222;2023-05-23T07:37:19;101308.22;;;35.81;45.92
32324;BME280;25666;44.350;9.222;2023-05-23T07:39:44;101305.66;;;36.51;41.88
32324;BME280;25666;44.350;9.222;2023-05-23T07:42:10;101316.72;;;34.43;50.21
32324;BME280;25666;44.350;9.222;2023-05-23T07:44:36;101308.41;;;35.06;48.21
32324;BME280;25666;44.350;9.222;2023-05-23T07:47:03;101311.59;;;34.04;49.85
32324;BME280;25666;44.350;9.222;2023-05-23T07:49:29;101309.81;;;33.09;56.12
32324;BME280;25666;44.350;9.222;2023-05-23T07:51:54;101309.19;;;32.81;57.38
32324;BME280;25666;44.350;9.222;2023-05-23T07:54:20;101301.19;;;32.20;62.46
32324;BME280;25666;44.350;9.222;2023-05-23T07:56:47;101300.00;;;32.35;63.50
32324;BME280;25666;44.350;9.222;2023-05-23T07:59:13;101306.63;;;28.97;94.71
32324;BME280;25666;44.350;9.222;2023-05-23T08:01:40;101306.50;;;27.49;100.00
32324;BME280;25666;44.350;9.222;2023-05-23T08:04:09;101309.22;;;26.95;100.00
32324;BME280;25666;44.350;9.222;2023-05-23T08:06:42;101310.00;;;25.20;100.00
32324;BME280;25666;44.350;9.222;2023-05-23T08:09:11;101311.13;;;24.83;100.00
32324;BME280;25666;44.350;9.222;2023-05-23T08:11:41;101304.88;;;24.41;100.00
32324;BME280;25666;44.350;9.222;2023-05-23T08:14:07;101303.06;;;24.28;100.00
32324;BME280;25666;44.350;9.222;2023-05-23T08:16:35;101302.13;;;23.81;100.00
32324;BME280;25666;44.350;9.222;2023-05-23T08:19:02;101302.97;;;23.78;100.00
32324;BME280;25666;44.350;9.222;2023-05-23T08:21:28;101307.06;;;24.04;100.00
32324;BME280;25666;44.350;9.222;2023-05-23T08:23:53;101309.97;;;23.73;100.00
32324;BME280;25666;44.350;9.222;2023-05-23T08:26:19;101313.09;;;23.82;100.00
32324;BME280;25666;44.350;9.222;2023-05-23T08:28:46;101315.25;;;23.71;100.00
32324;BME280;25666;44.350;9.222;2023-05-23T08:31:11;101310.19;;;23.56;100.00
32324;BME280;25666;44.350;9.222;2023-05-23T08:33:37;101314.25;;;23.85;100.00
32324;BME280;25666;44.350;9.222;2023-05-23T08:36:03;101316.91;;;23.69;100.00
32324;BME280;25666;44.350;9.222;2023-05-23T08:38:28;101316.53;;;23.67;100.00
32324;BME280;25666;44.350;9.222;2023-05-23T08:41:17;101313.75;;;23.63;100.00
32324;BME280;25666;44.350;9.222;2023-05-23T08:43:43;101315.81;;;23.25;100.00
32324;BME280;25666;44.350;9.222;2023-05-23T08:46:12;101318.97;;;22.97;100.00
32324;BME280;25666;44.350;9.222;2023-05-23T08:48:38;101312.84;;;23.02;100.00
32324;BME280;25666;44.350;9.222;2023-05-23T08:51:07;101320.78;;;23.18;100.00
32324;BME280;25666;44.350;9.222;2023-05-23T08:53:35;101312.50;;;23.30;100.00
32324;BME280;25666;44.350;9.222;2023-05-23T08:56:05;101312.94;;;23.29;100.00
32324;BME280;25666;44.350;9.222;2023-05-23T08:58:39;101315.88;;;23.18;100.00
32324;BME280;25666;44.350;9.222;2023-05-23T09:01:08;101310.94;;;23.26;100.00
32324;BME280;25666;44.350;9.222;2023-05-23T09:03:37;101308.19;;;23.15;100.00
32324;BME280;25666;44.350;9.222;2023-05-23T09:06:09;101310.19;;;23.18;100.00
32324;BME280;25666;44.350;9.222;2023-05-23T09:08:35;101318.09;;;23.37;100.00
32324;BME280;25666;44.350;9.222;2023-05-23T09:11:02;101320.22;;;23.30;100.00
32324;BME280;25666;44.350;9.222;2023-05-23T09:13:31;101330.16;;;23.15;100.00
32324;BME280;25666;44.350;9.222;2023-05-23T09:18:25;101327.41;;;23.04;100.00
32324;BME280;25666;44.350;9.222;2023-05-23T09:20:51;101330.84;;;22.85;100.00
32324;BME280;25666;44.350;9.222;2023-05-23T09:23:17;101334.88;;;22.87;100.00
32324;BME280;25666;44.350;9.222;2023-05-23T09:25:47;101336.41;;;22.48;100.00
32324;BME280;25666;44.350;9.222;2023-05-23T09:28:13;101341.09;;;22.72;100.00
32324;BME280;25666;44.350;9.222;2023-05-23T09:30:39;101332.56;;;22.72;100.00
32324;BME280;25666;44.350;9.222;2023-05-23T09:33:05;101341.88;;;22.76;100.00
32324;BME280;25666;44.350;9.222;2023-05-23T09:35:31;101338.50;;;22.88;100.00
32324;BME280;25666;44.350;9.222;2023-05-23T09:37:58;101335.56;;;22.54;100.00
32324;BME280;25666;44.350;9.222;2023-05-23T09:40:28;101329.13;;;22.43;100.00
32324;BME280;25666;44.350;9.222;2023-05-23T09:43:02;101336.03;;;22.46;100.00
32324;BME280;25666;44.350;9.222;2023-05-23T09:45:30;101333.56;;;22.51;100.00
32324;BME280;25666;44.350;9.222;2023-05-23T09:47:56;101339.84;;;22.21;100.00
32324;BME280;25666;44.350;9.222;2023-05-23T09:50:22;101338.34;;;21.99;100.00
32324;BME280;25666;44.350;9.222;2023-05-23T09:52:48;101348.75;;;22.23;100.00
32324;BME280;25666;44.350;9.222;2023-05-23T09:55:15;101344.75;;;22.17;100.00
32324;BME280;25666;44.350;9.222;2023-05-23T09:57:42;101349.69;;;21.99;100.00
32324;BME280;25666;44.350;9.222;2023-05-23T10:00:09;101357.44;;;21.92;100.00
32324;BME280;25666;44.350;9.222;2023-05-23T10:03:00;101354.97;;;22.01;100.00
32324;BME280;25666;44.350;9.222;2023-05-23T10:05:47;101362.31;;;21.80;100.00
32324;BME280;25666;44.350;9.222;2023-05-23T10:08:38;101368.78;;;21.95;100.00
32324;BME280;25666;44.350;9.222;2023-05-23T10:13:43;101363.19;;;22.43;100.00
32324;BME280;25666;44.350;9.222;2023-05-23T10:16:33;101362.16;;;22.16;100.00
32324;BME280;25666;44.350;9.222;2023-05-23T10:19:11;101366.81;;;22.43;100.00
32324;BME280;25666;44.350;9.222;2023-05-23T10:21:49;101370.13;;;22.35;100.00
32324;BME280;25666;44.350;9.222;2023-05-23T10:24:15;101366.50;;;22.34;100.00
32324;BME280;25666;44.350;9.222;2023-05-23T10:26:42;101358.91;;;22.21;100.00
32324;BME280;25666;44.350;9.222;2023-05-23T10:29:09;101358.63;;;21.98;100.00
32324;BME280;25666;44.350;9.222;2023-05-23T10:31:35;101360.13;;;22.16;100.00
32324;BME280;25666;44.350;9.222;2023-05-23T10:37:05;101370.66;;;22.16;100.00
32324;BME280;25666;44.350;9.222;2023-05-23T10:42:53;101365.81;;;22.13;100.00
32324;BME280;25666;44.350;9.222;2023-05-23T10:45:21;101369.59;;;21.81;100.00
32324;BME280;25666;44.350;9.222;2023-05-23T10:47:49;101357.69;;;22.15;100.00
32324;BME280;25666;44.350;9.222;2023-05-23T10:50:35;101367.16;;;21.91;100.00
32324;BME280;25666;44.350;9.222;2023-05-23T10:53:04;101365.66;;;21.61;100.00
32324;BME280;25666;44.350;9.222;2023-05-23T10:55:34;101369.59;;;21.96;100.00
32324;BME280;25666;44.350;9.222;2023-05-23T10:58:19;101360.75;;;21.72;100.00
32324;BME280;25666;44.350;9.222;2023-05-23T11:00:54;101363.94;;;21.81;100.00
32324;BME280;25666;44.350;9.222;2023-05-23T11:03:50;101367.63;;;21.68;100.00
32324;BME280;25666;44.350;9.222;2023-05-23T11:09:12;101363.13;;;21.81;100.00
32324;BME280;25666;44.350;9.222;2023-05-23T11:17:16;101356.16;;;22.03;100.00
32324;BME280;25666;44.350;9.222;2023-05-23T11:19:55;101354.94;;;22.04;100.00
32324;BME280;25666;44.350;9.222;2023-05-23T11:22:26;101357.75;;;22.08;100.00
32324;BME280;25666;44.350;9.222;2023-05-23T11:24:54;101363.00;;;22.09;100.00
32324;BME280;25666;44.350;9.222;2023-05-23T11:27:36;101353.97;;;22.32;100.00
32324;BME280;25666;44.350;9.222;2023-05-23T11:30:16;101350.69;;;22.33;100.00
32324;BME280;25666;44.350;9.222;2023-05-23T11:32:49;101344.97;;;22.40;100.00
32324;BME280;25666;44.350;9.222;2023-05-23T11:35:15;101350.56;;;22.51;100.00
32324;BME280;25666;44.350;9.222;2023-05-23T11:37:42;101354.28;;;22.41;100.00
32324;BME280;25666;44.350;9.222;2023-05-23T11:40:30;101347.47;;;22.31;100.00
32324;BME280;25666;44.350;9.222;2023-05-23T11:42:57;101345.44;;;22.35;100.00
32324;BME280;25666;44.350;9.222;2023-05-23T11:45:23;101334.97;;;22.25;100.00
32324;BME280;25666;44.350;9.222;2023-05-23T11:47:49;101334.97;;;22.22;100.00
32324;BME280;25666;44.350;9.222;2023-05-23T11:50:15;101332.09;;;22.29;100.00
32324;BME280;25666;44.350;9.222;2023-05-23T11:52:41;101335.34;;;22.27;100.00
32324;BME280;25666;44.350;9.222;2023-05-23T11:55:09;101331.66;;;22.34;100.00
32324;BME280;25666;44.350;9.222;2023-05-23T11:57:38;101327.13;;;22.43;100.00
32324;BME280;25666;44.350;9.222;2023-05-23T12:00:07;101329.06;;;22.54;100.00
32324;BME280;25666;44.350;9.222;2023-05-23T12:02:43;101327.06;;;22.51;100.00
32324;BME280;25666;44.350;9.222;2023-05-23T12:05:10;101322.91;;;22.11;100.00
32324;BME280;25666;44.350;9.222;2023-05-23T12:07:48;101318.50;;;21.99;100.00
32324;BME280;25666;44.350;9.222;2023-05-23T12:10:14;101318.78;;;22.19;100.00
32324;BME280;25666;44.350;9.222;2023-05-23T12:12:45;101322.97;;;22.00;100.00
32324;BME280;25666;44.350;9.222;2023-05-23T12:15:11;101325.75;;;22.11;100.00
32324;BME280;25666;44.350;9.222;2023-05-23T12:17:37;101312.66;;;22.27;100.00
32324;BME280;25666;44.350;9.222;2023-05-23T12:20:04;101308.59;;;22.28;100.00
32324;BME280;25666;44.350;9.222;2023-05-23T12:22:30;101308.25;;;22.19;100.00
32324;BME280;25666;44.350;9.222;2023-05-23T12:24:56;101307.78;;;22.28;100.00
32324;BME280;25666;44.350;9.222;2023-05-23T12:27:47;101302.38;;;22.48;100.00
32324;BME280;25666;44.350;9.222;2023-05-23T12:30:14;101301.03;;;22.59;100.00
32324;BME280;25666;44.350;9.222;2023-05-23T12:32:41;101297.81;;;22.57;100.00
32324;BME280;25666;44.350;9.222;2023-05-23T12:35:08;101297.88;;;22.50;100.00
32324;BME280;25666;44.350;9.222;2023-05-23T12:37:38;101301.00;;;22.70;100.00
32324;BME280;25666;44.350;9.222;2023-05-23T12:42:57;101302.53;;;22.74;100.00
32324;BME280;25666;44.350;9.222;2023-05-23T12:45:30;101311.53;;;22.69;100.00
32324;BME280;25666;44.350;9.222;2023-05-23T12:47:56;101309.03;;;22.75;100.00
32324;BME280;25666;44.350;9.222;2023-05-23T12:50:21;101308.66;;;22.73;100.00
32324;BME280;25666;44.350;9.222;2023-05-23T12:52:47;101309.13;;;22.64;100.00
32324;BME280;25666;44.350;9.222;2023-05-23T12:55:12;101307.06;;;22.68;100.00
32324;BME280;25666;44.350;9.222;2023-05-23T12:57:38;101300.66;;;22.57;100.00
32324;BME280;25666;44.350;9.222;2023-05-23T13:00:05;101301.16;;;22.49;100.00
32324;BME280;25666;44.350;9.222;2023-05-23T13:02:31;101298.59;;;22.61;100.00
32324;BME280;25666;44.350;9.222;2023-05-23T13:04:56;101295.66;;;22.75;100.00
32324;BME280;25666;44.350;9.222;2023-05-23T13:07:22;101296.16;;;22.63;100.00
32324;BME280;25666;44.350;9.222;2023-05-23T13:09:48;101293.88;;;22.44;100.00
32324;BME280;25666;44.350;9.222;2023-05-23T13:12:13;101293.16;;;22.36;100.00
32324;BME280;25666;44.350;9.222;2023-05-23T13:14:40;101292.22;;;22.47;100.00
32324;BME280;25666;44.350;9.222;2023-05-23T13:17:06;101283.56;;;22.20;100.00